createdAt,value
2023-02-26T00:02:54.736Z,11.52
2023-02-26T00:06:01.533Z,7.38
2023-02-26T00:09:05.603Z,9.50
2023-02-26T00:12:10.366Z,11.80
2023-02-26T00:15:15.018Z,10.43
2023-02-26T00:18:17.563Z,7.97
2023-02-26T00:21:21.919Z,10.27
2023-02-26T00:24:23.944Z,7.90
2023-02-26T00:27:25.800Z,11.75
2023-02-26T00:30:27.814Z,13.30
2023-02-26T00:33:29.772Z,6.20
2023-02-26T00:36:50.673Z,8.23
2023-02-26T00:39:59.783Z,7.55
2023-02-26T00:43:04.364Z,7.15
2023-02-26T00:46:14.203Z,6.25
2023-02-26T00:49:15.974Z,8.75
2023-02-26T00:52:27.226Z,7.05
2023-02-26T00:55:29.697Z,8.70
2023-02-26T00:58:31.748Z,8.45
2023-02-26T01:01:33.672Z,3.30
2023-02-26T01:04:36.403Z,7.18
2023-02-26T01:07:44.678Z,9.20
2023-02-26T01:10:46.968Z,7.72
2023-02-26T01:13:49.073Z,17.42
2023-02-26T01:17:04.497Z,10.65
2023-02-26T01:20:11.599Z,8.60
2023-02-26T01:23:16.925Z,9.10
2023-02-26T01:26:29.236Z,8.40
2023-02-26T01:29:31.312Z,7.97
2023-02-26T01:32:56.995Z,10.30
2023-02-26T01:36:03.452Z,6.30
2023-02-26T01:39:53.424Z,8.32
2023-02-26T01:43:01.106Z,4.00
2023-02-26T01:46:25.569Z,4.13
2023-02-26T01:49:28.205Z,4.93
2023-02-26T01:52:50.434Z,8.02
2023-02-26T01:55:57.484Z,6.30
2023-02-26T01:58:59.906Z,9.18
2023-02-26T02:02:06.484Z,8.80
2023-02-26T02:05:20.280Z,7.90
2023-02-26T02:08:23.108Z,7.45
2023-02-26T02:11:25.010Z,8.60
2023-02-26T02:14:40.567Z,9.88
2023-02-26T02:17:56.683Z,11.32
2023-02-26T02:21:25.651Z,7.45
2023-02-26T02:25:01.095Z,8.02
2023-02-26T02:28:37.534Z,5.03
2023-02-26T02:32:12.089Z,14.40
2023-02-26T02:35:38.552Z,10.50
2023-02-26T02:38:48.607Z,12.40
2023-02-26T02:41:54.936Z,6.90
2023-02-26T02:45:29.306Z,7.32
2023-02-26T02:48:45.168Z,12.35
2023-02-26T02:51:52.189Z,7.63
2023-02-26T02:55:02.760Z,7.78
2023-02-26T02:58:10.730Z,9.13
2023-02-26T03:01:15.858Z,8.93
2023-02-26T03:04:18.512Z,7.47
2023-02-26T03:07:20.748Z,5.75
2023-02-26T03:10:23.120Z,10.07
2023-02-26T03:13:26.500Z,5.23
2023-02-26T03:17:12.411Z,8.48
2023-02-26T03:20:26.187Z,9.13
2023-02-26T03:23:35.604Z,8.77
2023-02-26T03:26:44.864Z,12.35
2023-02-26T03:30:14.313Z,9.70
2023-02-26T03:33:55.924Z,3.70
2023-02-26T03:37:04.794Z,8.07
2023-02-26T03:40:16.847Z,10.13
2023-02-26T03:43:30.709Z,6.22
2023-02-26T03:46:46.044Z,7.40
2023-02-26T03:50:01.650Z,7.72
2023-02-26T03:53:07.924Z,9.80
2023-02-26T03:56:16.267Z,6.70
2023-02-26T03:59:18.927Z,8.35
2023-02-26T04:03:02.395Z,7.38
2023-02-26T04:06:05.485Z,6.80
2023-02-26T04:09:07.829Z,9.80
2023-02-26T04:12:09.764Z,7.63
2023-02-26T04:15:12.438Z,5.60
2023-02-26T04:18:14.525Z,2.90
2023-02-26T04:21:22.300Z,5.65
2023-02-26T04:24:25.096Z,6.20
2023-02-26T04:27:26.886Z,8.52
2023-02-26T04:30:28.924Z,7.28
2023-02-26T04:33:31.694Z,9.00
2023-02-26T04:36:33.507Z,4.05
2023-02-26T04:39:35.247Z,7.53
2023-02-26T04:42:37.872Z,5.10
2023-02-26T04:45:39.746Z,6.63
2023-02-26T04:48:41.640Z,5.00
2023-02-26T04:51:43.376Z,4.50
2023-02-26T04:54:45.316Z,8.60
2023-02-26T04:57:47.706Z,5.40
2023-02-26T05:00:54.872Z,5.83
2023-02-26T05:03:56.774Z,2.67
2023-02-26T05:06:58.631Z,4.80
2023-02-26T05:10:00.431Z,5.93
2023-02-26T05:13:02.514Z,6.95
2023-02-26T05:16:05.512Z,4.65
2023-02-26T05:19:07.668Z,3.85
2023-02-26T05:22:09.687Z,7.03
2023-02-26T05:25:14.841Z,6.18
2023-02-26T05:28:16.756Z,5.57
2023-02-26T05:31:18.795Z,6.22
2023-02-26T05:34:20.677Z,7.47
2023-02-26T05:37:22.495Z,6.93
2023-02-26T05:40:24.457Z,3.95
2023-02-26T05:43:27.361Z,4.95
2023-02-26T05:46:29.347Z,6.72
2023-02-26T05:49:31.394Z,4.10
2023-02-26T05:52:33.346Z,4.88
2023-02-26T05:55:35.791Z,5.68
2023-02-26T05:58:38.048Z,4.13
2023-02-26T06:01:40.031Z,4.50
2023-02-26T06:04:42.608Z,7.07
2023-02-26T06:07:45.505Z,5.45
2023-02-26T06:10:51.039Z,10.20
2023-02-26T06:13:52.964Z,4.82
2023-02-26T06:16:54.796Z,5.90
2023-02-26T06:19:56.769Z,4.63
2023-02-26T06:22:58.541Z,5.65
2023-02-26T06:26:00.460Z,6.35
2023-02-26T06:29:02.329Z,5.35
2023-02-26T06:32:11.522Z,3.83
2023-02-26T06:35:13.458Z,7.05
2023-02-26T06:38:15.786Z,3.80
2023-02-26T06:41:17.530Z,7.53
2023-02-26T06:44:19.537Z,9.57
2023-02-26T06:47:21.609Z,5.65
2023-02-26T06:50:23.606Z,8.50
2023-02-26T06:53:25.395Z,8.30
2023-02-26T06:56:27.724Z,6.53
2023-02-26T06:59:30.066Z,6.72
2023-02-26T07:02:31.967Z,2.92
2023-02-26T07:05:35.090Z,2.88
2023-02-26T07:08:36.952Z,5.35
2023-02-26T07:11:38.878Z,6.43
2023-02-26T07:14:43.061Z,4.32
2023-02-26T07:17:44.934Z,5.40
2023-02-26T07:20:50.074Z,7.80
2023-02-26T07:23:51.810Z,4.32
2023-02-26T07:26:53.632Z,3.28
2023-02-26T07:29:55.513Z,2.90
2023-02-26T07:32:57.673Z,4.90
2023-02-26T07:35:59.648Z,4.75
2023-02-26T07:39:05.348Z,11.50
2023-02-26T07:42:07.284Z,4.07
2023-02-26T07:45:10.051Z,3.80
2023-02-26T07:48:12.086Z,7.05
2023-02-26T07:51:13.934Z,3.63
2023-02-26T07:54:15.881Z,4.00
2023-02-26T07:57:18.776Z,4.05
2023-02-26T08:00:20.715Z,7.22
2023-02-26T08:03:24.062Z,4.25
2023-02-26T08:06:27.287Z,13.50
2023-02-26T08:09:30.737Z,9.80
2023-02-26T08:15:34.975Z,13.68
2023-02-26T08:18:37.408Z,16.63
2023-02-26T08:21:39.256Z,9.40
2023-02-26T08:24:41.129Z,5.28
2023-02-26T08:27:43.043Z,5.57
2023-02-26T08:30:44.830Z,7.57
2023-02-26T08:33:46.911Z,6.57
2023-02-26T08:36:50.335Z,6.72
2023-02-26T08:39:53.164Z,6.05
2023-02-26T08:42:54.897Z,8.20
2023-02-26T08:45:57.638Z,6.72
2023-02-26T08:48:59.425Z,6.57
2023-02-26T08:52:01.262Z,5.53
2023-02-26T08:55:03.201Z,3.05
2023-02-26T08:58:05.086Z,5.78
2023-02-26T09:01:06.872Z,4.88
2023-02-26T09:04:08.627Z,4.38
2023-02-26T09:07:10.827Z,5.30
2023-02-26T09:10:14.001Z,7.55
2023-02-26T09:16:17.842Z,5.18
2023-02-26T09:19:19.825Z,6.10
2023-02-26T09:22:21.686Z,4.15
2023-02-26T09:25:24.547Z,5.88
2023-02-26T09:28:26.898Z,11.05
2023-02-26T09:31:29.042Z,3.13
2023-02-26T09:34:31.204Z,3.85
2023-02-26T09:37:33.309Z,3.33
2023-02-26T09:40:50.675Z,3.78
2023-02-26T09:44:09.398Z,6.72
2023-02-26T09:47:20.969Z,5.78
2023-02-26T09:50:28.774Z,4.32
2023-02-26T09:53:41.322Z,5.22
2023-02-26T09:56:45.324Z,4.60
2023-02-26T09:59:47.189Z,10.05
2023-02-26T10:03:05.384Z,8.07
2023-02-26T10:06:32.046Z,12.43
2023-02-26T10:09:46.837Z,7.97
2023-02-26T10:12:51.660Z,4.18
2023-02-26T10:16:00.784Z,4.07
2023-02-26T10:19:13.800Z,6.50
2023-02-26T10:22:32.332Z,8.35
2023-02-26T10:25:54.336Z,6.75
2023-02-26T10:29:23.025Z,6.03
2023-02-26T10:32:38.928Z,3.53
2023-02-26T10:35:55.785Z,6.72
2023-02-26T10:39:06.374Z,5.43
2023-02-26T10:42:21.731Z,2.78
2023-02-26T10:45:42.878Z,2.72
2023-02-26T10:48:47.461Z,3.53
2023-02-26T10:51:52.829Z,4.07
2023-02-26T11:02:44.916Z,2.58
2023-02-26T11:05:48.218Z,2.95
2023-02-26T11:12:09.143Z,6.00
2023-02-26T11:15:17.368Z,6.00
2023-02-26T11:18:32.848Z,5.13
2023-02-26T11:21:41.830Z,3.00
2023-02-26T11:24:47.750Z,3.45
2023-02-26T11:28:04.532Z,6.03
2023-02-26T11:31:09.255Z,2.10
2023-02-26T11:34:12.470Z,4.68
2023-02-26T11:37:23.275Z,5.00
2023-02-26T11:40:34.620Z,4.32
2023-02-26T11:44:03.115Z,2.92
2023-02-26T11:47:10.766Z,3.05
2023-02-26T11:50:23.093Z,3.45
2023-02-26T11:53:41.571Z,2.70
2023-02-26T11:56:43.348Z,3.85
2023-02-26T11:59:50.801Z,8.57
2023-02-26T12:03:05.099Z,8.57
2023-02-26T12:06:15.698Z,4.57
2023-02-26T12:09:19.144Z,4.90
2023-02-26T12:12:35.719Z,4.47
2023-02-26T12:15:44.048Z,5.60
2023-02-26T12:19:04.162Z,2.50
2023-02-26T12:22:35.881Z,2.22
2023-02-26T12:25:49.562Z,3.88
2023-02-26T12:29:03.295Z,13.10
2023-02-26T12:32:28.060Z,17.48
2023-02-26T12:35:48.125Z,4.03
2023-02-26T12:39:08.859Z,1.63
2023-02-26T12:42:59.746Z,3.47
2023-02-26T12:46:33.441Z,2.42
2023-02-26T12:49:54.253Z,2.33
2023-02-26T12:52:56.062Z,3.45
2023-02-26T12:56:34.125Z,5.65
2023-02-26T12:59:55.258Z,2.38
2023-02-26T13:03:15.817Z,3.63
2023-02-26T13:06:41.927Z,4.20
2023-02-26T13:09:53.533Z,4.85
2023-02-26T13:13:16.030Z,3.40
2023-02-26T13:16:45.079Z,4.30
2023-02-26T13:19:56.128Z,3.35
2023-02-26T13:23:03.490Z,6.22
2023-02-26T13:26:11.582Z,5.82
2023-02-26T13:29:21.170Z,4.28
2023-02-26T13:32:28.871Z,2.83
2023-02-26T13:35:34.585Z,2.00
2023-02-26T13:38:56.104Z,5.13
2023-02-26T13:42:10.719Z,6.75
2023-02-26T13:45:52.272Z,1.98
2023-02-26T13:49:06.555Z,2.60
2023-02-26T13:52:27.023Z,2.88
2023-02-26T13:55:43.496Z,2.38
2023-02-26T13:58:52.510Z,1.80
2023-02-26T14:01:57.952Z,2.22
2023-02-26T14:05:01.242Z,2.45
2023-02-26T14:11:45.781Z,3.20
2023-02-26T14:15:02.546Z,1.65
2023-02-26T14:18:18.982Z,3.50
2023-02-26T14:21:37.665Z,2.22
2023-02-26T14:24:45.509Z,1.73
2023-02-26T14:27:48.915Z,1.95
2023-02-26T14:31:26.825Z,1.98
2023-02-26T14:34:33.584Z,2.53
2023-02-26T14:37:37.987Z,2.10
2023-02-26T14:40:46.431Z,2.22
2023-02-26T14:44:00.313Z,3.38
2023-02-26T14:47:03.712Z,3.15
2023-02-26T14:53:14.416Z,4.47
2023-02-26T14:56:34.406Z,4.68
2023-02-26T14:59:51.340Z,2.00
2023-02-26T15:03:24.705Z,1.88
2023-02-26T15:07:00.782Z,1.40
2023-02-26T15:10:29.456Z,2.95
2023-02-26T15:14:10.289Z,2.63
2023-02-26T15:17:18.680Z,6.07
2023-02-26T15:20:51.933Z,3.00
2023-02-26T15:23:55.746Z,5.32
2023-02-26T15:27:07.637Z,2.97
2023-02-26T15:30:15.732Z,4.03
2023-02-26T15:33:20.465Z,1.20
2023-02-26T15:36:24.577Z,1.60
2023-02-26T15:39:27.020Z,2.17
2023-02-26T15:42:34.105Z,3.33
2023-02-26T15:45:43.741Z,11.48
2023-02-26T15:48:46.447Z,7.93
2023-02-26T15:51:48.435Z,1.17
2023-02-26T15:54:54.599Z,2.47
2023-02-26T15:57:56.752Z,4.45
2023-02-26T16:01:04.113Z,3.17
2023-02-26T16:04:13.158Z,1.27
2023-02-26T16:07:15.385Z,3.67
2023-02-26T16:10:40.290Z,6.13
2023-02-26T16:13:44.118Z,1.70
2023-02-26T16:16:49.642Z,1.73
2023-02-26T16:19:52.343Z,1.95
2023-02-26T16:23:02.331Z,1.15
2023-02-26T16:26:07.554Z,2.80
2023-02-26T16:29:30.627Z,2.70
2023-02-26T16:32:35.123Z,2.20
2023-02-26T16:35:46.160Z,1.55
2023-02-26T16:38:51.230Z,3.28
2023-02-26T16:42:33.898Z,1.75
2023-02-26T16:45:35.917Z,2.33
2023-02-26T16:48:54.711Z,2.15
2023-02-26T16:51:58.024Z,2.47
2023-02-26T16:55:04.807Z,4.47
2023-02-26T16:58:14.707Z,2.88
2023-02-26T17:01:20.095Z,3.13
2023-02-26T17:04:31.855Z,2.50
2023-02-26T17:07:36.272Z,4.35
2023-02-26T17:10:55.074Z,1.25
2023-02-26T17:14:10.547Z,3.58
2023-02-26T17:17:12.512Z,1.80
2023-02-26T17:20:14.748Z,4.13
2023-02-26T17:23:18.649Z,3.72
2023-02-26T17:26:20.593Z,1.85
2023-02-26T17:29:33.427Z,4.63
2023-02-26T17:32:36.242Z,3.28
2023-02-26T17:35:38.321Z,3.15
2023-02-26T17:38:40.764Z,7.15
2023-02-26T17:41:45.831Z,7.00
2023-02-26T17:44:48.535Z,3.60
2023-02-26T17:47:50.502Z,4.45
2023-02-26T17:50:57.311Z,2.72
2023-02-26T17:53:59.289Z,3.05
2023-02-26T17:57:01.197Z,2.63
2023-02-26T18:00:04.092Z,2.17
2023-02-26T18:03:06.967Z,3.30
2023-02-26T18:06:11.746Z,6.07
2023-02-26T18:09:13.685Z,2.05
2023-02-26T18:12:17.858Z,5.10
2023-02-26T18:15:19.610Z,3.38
2023-02-26T18:18:22.314Z,7.07
2023-02-26T18:21:25.741Z,4.30
2023-02-26T18:24:28.058Z,4.28
2023-02-26T18:27:30.148Z,2.05
2023-02-26T18:30:34.512Z,2.83
2023-02-26T18:33:38.597Z,5.00
2023-02-26T18:36:40.480Z,3.25
2023-02-26T18:39:42.868Z,4.28
2023-02-26T18:42:44.739Z,3.50
2023-02-26T18:45:48.654Z,4.70
2023-02-26T18:48:53.573Z,4.85
2023-02-26T18:51:55.609Z,4.32
2023-02-26T18:54:57.548Z,6.60
2023-02-26T18:57:59.281Z,4.93
2023-02-26T19:01:04.744Z,4.40
2023-02-26T19:04:08.066Z,3.55
2023-02-26T19:07:10.126Z,4.63
2023-02-26T19:10:14.679Z,4.20
2023-02-26T19:13:16.539Z,7.82
2023-02-26T19:16:22.706Z,7.35
2023-02-26T19:19:24.937Z,4.75
2023-02-26T19:22:26.770Z,6.50
2023-02-26T19:25:30.397Z,5.75
2023-02-26T19:28:32.504Z,6.90
2023-02-26T19:31:36.554Z,20.40
2023-02-26T19:34:38.903Z,17.08
2023-02-26T19:37:40.793Z,14.80
2023-02-26T19:40:43.706Z,12.68
2023-02-26T19:43:46.963Z,13.38
2023-02-26T19:46:49.921Z,10.55
2023-02-26T19:49:51.674Z,7.00
2023-02-26T19:52:54.510Z,5.45
2023-02-26T19:55:56.441Z,7.70
2023-02-26T19:58:58.173Z,16.02
2023-02-26T20:02:00.639Z,11.82
2023-02-26T20:05:04.892Z,13.90
2023-02-26T20:08:06.765Z,22.00
2023-02-26T20:11:09.237Z,13.52
2023-02-26T20:14:11.107Z,16.03
2023-02-26T20:17:12.816Z,22.15
2023-02-26T20:20:14.672Z,15.10
2023-02-26T20:23:16.456Z,24.42
2023-02-26T20:26:18.381Z,17.67
2023-02-26T20:29:20.434Z,27.70
2023-02-26T20:32:23.757Z,37.88
2023-02-26T20:38:28.266Z,17.95
2023-02-26T20:41:30.451Z,10.63
2023-02-26T20:44:32.928Z,12.18
2023-02-26T20:47:35.078Z,33.50
2023-02-26T20:50:37.321Z,15.75
2023-02-26T20:53:40.117Z,11.23
2023-02-26T20:56:42.344Z,10.15
2023-02-26T20:59:44.192Z,8.40
2023-02-26T21:02:46.763Z,12.38
2023-02-26T21:05:48.587Z,12.77
2023-02-26T21:08:50.640Z,10.18
2023-02-26T21:11:52.642Z,14.82
2023-02-26T21:14:55.852Z,12.00
2023-02-26T21:17:58.415Z,10.85
2023-02-26T21:21:03.429Z,10.55
2023-02-26T21:24:05.552Z,10.05
2023-02-26T21:27:07.297Z,15.85
2023-02-26T21:30:11.177Z,9.65
2023-02-26T21:33:13.652Z,13.07
2023-02-26T21:36:15.868Z,17.93
2023-02-26T21:39:17.834Z,13.27
2023-02-26T21:42:20.008Z,14.73
2023-02-26T21:45:21.816Z,13.77
2023-02-26T21:48:23.650Z,14.95
2023-02-26T21:51:26.085Z,15.10
2023-02-26T21:54:28.343Z,13.65
2023-02-26T21:57:30.197Z,12.45
2023-02-26T22:00:32.331Z,11.20
2023-02-26T22:03:34.609Z,14.27
2023-02-26T22:06:36.472Z,5.55
2023-02-26T22:09:38.452Z,9.57
2023-02-26T22:12:40.433Z,6.90
2023-02-26T22:15:42.735Z,10.55
2023-02-26T22:18:44.593Z,8.88
2023-02-26T22:21:46.404Z,7.43
2023-02-26T22:24:48.335Z,7.85
2023-02-26T22:27:50.996Z,8.30
2023-02-26T22:30:52.886Z,10.63
2023-02-26T22:33:55.723Z,8.65
2023-02-26T22:36:57.452Z,7.53
2023-02-26T22:39:59.449Z,7.38
2023-02-26T22:43:01.333Z,7.47
2023-02-26T22:46:03.269Z,6.07
2023-02-26T22:49:05.710Z,6.22
2023-02-26T22:52:07.963Z,5.33
2023-02-26T22:55:10.946Z,5.97
2023-02-26T22:58:12.886Z,4.80
2023-02-26T23:01:15.782Z,4.53
2023-02-26T23:04:18.146Z,5.38
2023-02-26T23:07:20.178Z,7.40
2023-02-26T23:10:22.207Z,5.15
2023-02-26T23:13:24.754Z,6.40
2023-02-26T23:16:26.716Z,4.93
2023-02-26T23:19:28.672Z,4.47
2023-02-26T23:22:30.613Z,4.88
2023-02-26T23:25:32.401Z,5.63
2023-02-26T23:28:34.295Z,5.13
2023-02-26T23:31:36.466Z,12.63
2023-02-26T23:34:38.722Z,3.70
2023-02-26T23:37:40.473Z,3.65
2023-02-26T23:40:42.487Z,4.28
2023-02-26T23:43:44.467Z,3.78
2023-02-26T23:46:46.425Z,2.78
2023-02-26T23:49:48.222Z,8.25
2023-02-26T23:52:50.491Z,4.03
2023-02-26T23:55:57.170Z,7.22
2023-02-26T23:58:58.987Z,2.90
